Time;durP1;ratioP1;P1;durP2;ratioP2;P2;SDS_P1;SDS_P2;PMS_P1;PMS_P2;Temp;Humidity;BMP_temperature;BMP_pressure;BME280_temperature;BME280_humidity;BME280_pressure;Samples;Min_cycle;Max_cycle;Signal;HPM_P1;HPM_P2
2022/01/15 00:01:35;;;;;;;;;;;;;;;8.11;59.22;102143.91;4998786;28;7264;-70
2022/01/15 00:04:01;;;;;;;;;;;;;;;8.10;59.02;102145.53;5018129;28;6788;-70
2022/01/15 00:06:27;;;;;;;;;;;;;;;8.09;58.43;102146.31;5033958;28;7166;-70
2022/01/15 00:08:52;;;;;;;;;;;;;;;8.08;58.62;102149.63;5035528;28;6938;-70
2022/01/15 00:11:18;;;;;;;;;;;;;;;8.08;59.05;102146.19;5036253;28;7404;-70
2022/01/15 00:13:51;;;;;;;;;;;;;;;8.09;58.87;102150.53;5013415;28;7182;-70
2022/01/15 00:16:30;;;;;;;;;;;;;;;8.09;58.22;102155.66;5018790;28;7585;-70
2022/01/15 00:19:07;;;;;;;;;;;;;;;8.07;59.05;102147.84;5003047;28;6815;-70
2022/01/15 00:21:34;;;;;;;;;;;;;;;8.07;58.11;102152.94;5036781;28;6827;-70
2022/01/15 00:24:00;;;;;;;;;;;;;;;8.07;58.41;102155.50;5052154;28;6811;-70
2022/01/15 00:26:26;;;;;;;;;;;;;;;8.04;58.85;102161.22;5019230;28;6883;-70
2022/01/15 00:28:51;;;;;;;;;;;;;;;8.03;58.69;102153.47;5009510;28;7167;-70
2022/01/15 00:31:17;;;;;;;;;;;;;;;8.03;58.58;102162.00;5031295;28;8651;-70
2022/01/15 00:33:44;;;;;;;;;;;;;;;8.02;59.38;102165.31;5009968;28;6807;-70
2022/01/15 00:36:09;;;;;;;;;;;;;;;8.01;59.71;102153.31;5018941;28;6858;-70
2022/01/15 00:38:35;;;;;;;;;;;;;;;7.99;58.84;102153.94;5020480;28;6791;-70
2022/01/15 00:41:01;;;;;;;;;;;;;;;7.98;59.51;102141.94;5035646;28;7177;-70
2022/01/15 00:43:27;;;;;;;;;;;;;;;7.96;59.51;102143.47;5001349;28;6800;-71
2022/01/15 00:45:55;;;;;;;;;;;;;;;7.96;58.84;102139.25;5037033;28;6852;-70
2022/01/15 00:48:21;;;;;;;;;;;;;;;7.96;59.68;102139.25;5017388;28;6826;-71
2022/01/15 00:50:47;;;;;;;;;;;;;;;7.96;58.89;102136.69;5020449;28;6791;-71
2022/01/15 00:53:12;;;;;;;;;;;;;;;7.95;58.58;102134.03;5038072;28;6882;-72
2022/01/15 00:55:38;;;;;;;;;;;;;;;7.93;59.64;102131.31;5019006;28;7083;-72
2022/01/15 00:58:04;;;;;;;;;;;;;;;7.91;58.48;102135.41;5018892;28;6883;-72
2022/01/15 01:00:30;;;;;;;;;;;;;;;7.88;59.29;102132.59;5019227;28;7022;-72
2022/01/15 01:02:56;;;;;;;;;;;;;;;7.87;59.80;102124.03;5036898;28;7149;-72
2022/01/15 01:05:22;;;;;;;;;;;;;;;7.87;59.46;102120.56;5017708;28;6894;-72
2022/01/15 01:07:49;;;;;;;;;;;;;;;7.85;58.71;102107.69;5016866;28;7458;-72
2022/01/15 01:23:39;;;;;;;;;;;;;;;7.78;59.46;102102.81;5024426;28;7079;-69
2022/01/15 01:26:12;;;;;;;;;;;;;;;7.77;59.75;102103.56;5012081;28;6788;-69
2022/01/15 01:28:43;;;;;;;;;;;;;;;7.75;59.37;102098.31;5032645;28;6808;-71
2022/01/15 01:31:20;;;;;;;;;;;;;;;7.73;59.59;102089.66;4997071;28;7187;-71
2022/01/15 01:33:50;;;;;;;;;;;;;;;7.71;60.15;102091.19;5037092;28;6958;-71
2022/01/15 01:38:57;;;;;;;;;;;;;;;7.67;60.14;102084.00;5022616;28;6868;-72
2022/01/15 01:41:24;;;;;;;;;;;;;;;7.63;59.76;102071.75;5005759;28;6812;-71
2022/01/15 01:43:59;;;;;;;;;;;;;;;7.62;60.21;102073.41;4990324;28;7187;-71
2022/01/15 01:48:54;;;;;;;;;;;;;;;7.64;59.32;102071.91;5036872;28;6856;-72
2022/01/15 01:51:30;;;;;;;;;;;;;;;7.65;60.23;102075.31;4999195;28;7607;-72
2022/01/15 01:54:03;;;;;;;;;;;;;;;7.67;60.43;102073.78;5032554;28;6823;-72
2022/01/15 01:56:29;;;;;;;;;;;;;;;7.69;59.56;102069.75;5016927;28;6992;-72
2022/01/15 01:58:55;;;;;;;;;;;;;;;7.72;59.94;102066.53;5039437;28;6799;-72
2022/01/15 02:01:21;;;;;;;;;;;;;;;7.72;60.29;102066.53;5051907;28;7267;-72
2022/01/15 02:03:47;;;;;;;;;;;;;;;7.73;60.36;102058.16;5021142;28;6803;-72
2022/01/15 02:06:15;;;;;;;;;;;;;;;7.71;59.58;102064.75;5014158;28;9122;-72
2022/01/15 02:08:42;;;;;;;;;;;;;;;7.69;59.95;102061.19;5019978;28;6823;-70
2022/01/15 02:11:08;;;;;;;;;;;;;;;7.64;60.26;102055.69;5035891;28;7098;-69
2022/01/15 02:13:40;;;;;;;;;;;;;;;7.62;59.53;102055.53;5020769;28;7003;-70
2022/01/15 02:16:07;;;;;;;;;;;;;;;7.60;59.81;102054.50;5021107;28;6887;-70
2022/01/15 02:18:34;;;;;;;;;;;;;;;7.58;60.15;102058.59;5020555;28;7026;-70
2022/01/15 02:23:46;;;;;;;;;;;;;;;7.55;60.37;102059.97;5020116;28;7749;-70
2022/01/15 02:26:17;;;;;;;;;;;;;;;7.53;60.51;102054.72;5053723;28;6811;-70
2022/01/15 02:28:51;;;;;;;;;;;;;;;7.51;59.67;102051.16;5035686;28;7065;-70
2022/01/15 02:31:18;;;;;;;;;;;;;;;7.52;59.97;102057.16;5050512;28;6831;-70
2022/01/15 02:33:48;;;;;;;;;;;;;;;7.50;59.96;102051.94;5021610;28;7014;-70
2022/01/15 02:36:23;;;;;;;;;;;;;;;7.49;60.59;102050.13;5021942;28;7908;-70
2022/01/15 02:38:49;;;;;;;;;;;;;;;7.46;60.74;102047.34;5016666;28;7026;-70
2022/01/15 02:41:25;;;;;;;;;;;;;;;7.45;60.86;102045.53;5036816;28;6819;-70
2022/01/15 02:43:51;;;;;;;;;;;;;;;7.45;59.88;102037.91;5022355;28;6804;-70
2022/01/15 02:49:00;;;;;;;;;;;;;;;7.48;60.65;102041.59;5037617;28;6827;-70
2022/01/15 02:51:33;;;;;;;;;;;;;;;7.52;60.90;102032.53;5038037;28;7196;-70
2022/01/15 02:54:00;;;;;;;;;;;;;;;7.52;61.05;102024.88;5016420;28;7145;-70
2022/01/15 02:56:28;;;;;;;;;;;;;;;7.54;60.11;102023.38;5017389;28;6875;-70
2022/01/15 02:58:55;;;;;;;;;;;;;;;7.56;60.62;102019.28;5016554;28;6816;-70
2022/01/15 03:01:22;;;;;;;;;;;;;;;7.60;60.00;102021.34;5039861;28;6800;-70
2022/01/15 03:03:48;;;;;;;;;;;;;;;7.59;60.66;102013.56;5018020;28;6835;-70
2022/01/15 03:06:18;;;;;;;;;;;;;;;7.61;59.98;102015.47;5026127;28;7770;-70
2022/01/15 03:08:45;;;;;;;;;;;;;;;7.59;61.04;102006.78;5054421;28;7980;-70
2022/01/15 03:11:12;;;;;;;;;;;;;;;7.58;60.21;102004.09;5056439;28;7026;-70
2022/01/15 03:13:41;;;;;;;;;;;;;;;7.54;60.80;101997.88;5039908;28;6808;-70
2022/01/15 03:16:10;;;;;;;;;;;;;;;7.52;61.14;101999.38;5019014;28;7213;-70
2022/01/15 03:18:35;;;;;;;;;;;;;;;7.51;60.69;102000.13;5022413;28;6808;-70
2022/01/15 03:21:01;;;;;;;;;;;;;;;7.51;61.15;102007.78;5022975;28;7225;-70
2022/01/15 03:23:27;;;;;;;;;;;;;;;7.50;60.91;101998.34;5019436;28;6884;-70
2022/01/15 03:25:53;;;;;;;;;;;;;;;7.50;60.78;102004.34;5041578;28;7014;-70
2022/01/15 03:28:18;;;;;;;;;;;;;;;7.49;60.78;101992.38;5023840;28;7321;-70
2022/01/15 03:30:45;;;;;;;;;;;;;;;7.51;61.23;101984.81;5018514;28;6866;-70
2022/01/15 03:33:11;;;;;;;;;;;;;;;7.50;60.38;101983.03;5039480;28;6800;-70
2022/01/15 03:35:37;;;;;;;;;;;;;;;7.51;60.39;101979.72;5042458;28;6804;-70
2022/01/15 03:38:05;;;;;;;;;;;;;;;7.48;60.47;101980.38;5036723;28;7213;-70
2022/01/15 03:40:32;;;;;;;;;;;;;;;7.47;60.72;101986.22;5038172;28;7189;-70
2022/01/15 03:42:59;;;;;;;;;;;;;;;7.44;60.71;101982.53;5052880;28;7733;-70
2022/01/15 03:45:25;;;;;;;;;;;;;;;7.43;60.18;101984.16;5032928;28;6791;-70
2022/01/15 03:47:51;;;;;;;;;;;;;;;7.41;60.65;101982.25;5042436;28;6855;-70
2022/01/15 03:50:19;;;;;;;;;;;;;;;7.39;60.33;101984.69;5021439;28;7283;-70
2022/01/15 03:52:45;;;;;;;;;;;;;;;7.38;60.33;101989.66;5019708;28;7197;-70
2022/01/15 03:55:14;;;;;;;;;;;;;;;7.36;61.39;101974.19;5006013;28;6804;-70
2022/01/15 03:57:40;;;;;;;;;;;;;;;7.34;60.99;101958.78;5037370;28;6808;-70
2022/01/15 04:00:15;;;;;;;;;;;;;;;7.30;60.76;101956.72;5023340;28;6943;-70
2022/01/15 04:02:42;;;;;;;;;;;;;;;7.27;61.06;101953.91;5038591;28;6823;-70
2022/01/15 04:05:10;;;;;;;;;;;;;;;7.25;60.65;101952.88;5023189;28;7627;-70
2022/01/15 04:07:35;;;;;;;;;;;;;;;7.24;60.62;101951.06;5037371;28;6823;-70
2022/01/15 04:10:03;;;;;;;;;;;;;;;7.21;60.39;101943.16;5035905;28;7014;-70
2022/01/15 04:12:29;;;;;;;;;;;;;;;7.19;60.96;101935.38;4978704;28;7282;-70
2022/01/15 04:14:54;;;;;;;;;;;;;;;7.17;61.18;101938.56;5011282;28;6898;-70
2022/01/15 04:17:20;;;;;;;;;;;;;;;7.16;60.54;101940.22;5036311;28;7311;-70
2022/01/15 04:19:46;;;;;;;;;;;;;;;7.13;60.88;101929.75;5021649;28;6787;-70
2022/01/15 04:22:11;;;;;;;;;;;;;;;7.11;60.65;101941.47;5016238;28;6974;-70
2022/01/15 04:24:37;;;;;;;;;;;;;;;7.11;61.43;101935.47;5019405;28;6914;-70
2022/01/15 04:27:03;;;;;;;;;;;;;;;7.09;60.60;101935.34;5018778;28;6795;-70
2022/01/15 04:29:31;;;;;;;;;;;;;;;7.11;60.77;101935.47;5006510;28;6835;-70
2022/01/15 04:31:57;;;;;;;;;;;;;;;7.13;61.05;101923.75;5023815;28;10026;-69
2022/01/15 04:34:26;;;;;;;;;;;;;;;7.11;60.77;101921.09;5014008;28;6788;-69
2022/01/15 04:37:00;;;;;;;;;;;;;;;7.09;60.28;101913.28;5019765;28;7317;-69
2022/01/15 04:39:26;;;;;;;;;;;;;;;7.09;60.87;101912.38;5019271;28;6828;-70
2022/01/15 04:41:51;;;;;;;;;;;;;;;7.07;60.80;101906.25;5018803;28;7291;-70
2022/01/15 04:44:17;;;;;;;;;;;;;;;7.02;61.11;101903.31;5037747;28;6791;-70
2022/01/15 04:46:43;;;;;;;;;;;;;;;7.00;61.18;101904.84;5017400;28;6936;-70
2022/01/15 04:49:09;;;;;;;;;;;;;;;6.95;61.18;101901.00;5018690;28;6795;-70
2022/01/15 04:51:34;;;;;;;;;;;;;;;6.90;61.25;101908.25;5020306;28;9502;-71
2022/01/15 04:54:00;;;;;;;;;;;;;;;6.86;61.16;101907.88;4994506;28;7869;-71
2022/01/15 04:56:26;;;;;;;;;;;;;;;6.84;61.38;101909.38;5019519;28;6883;-72
2022/01/15 04:58:52;;;;;;;;;;;;;;;6.83;60.95;101907.56;5011757;28;6816;-72
2022/01/15 05:01:18;;;;;;;;;;;;;;;6.83;61.02;101903.38;5034477;28;6807;-72
2022/01/15 05:03:44;;;;;;;;;;;;;;;6.85;61.44;101903.50;5018733;28;6792;-72
2022/01/15 05:06:09;;;;;;;;;;;;;;;6.85;61.02;101895.84;5029268;28;6926;-72
2022/01/15 05:08:35;;;;;;;;;;;;;;;6.87;60.78;101884.16;4992570;28;6843;-72
2022/01/15 05:11:11;;;;;;;;;;;;;;;6.86;61.53;101885.81;5020229;28;7058;-72
2022/01/15 05:13:37;;;;;;;;;;;;;;;6.87;61.26;101889.25;5032039;28;7326;-70
2022/01/15 05:16:03;;;;;;;;;;;;;;;6.89;60.92;101892.84;5008911;28;6977;-70
2022/01/15 05:18:29;;;;;;;;;;;;;;;6.91;61.29;101891.31;5019013;28;6812;-70
2022/01/15 05:20:55;;;;;;;;;;;;;;;6.92;61.49;101893.09;5032893;28;7120;-70
2022/01/15 05:23:20;;;;;;;;;;;;;;;6.95;61.72;101901.00;5016963;28;7824;-70
2022/01/15 05:25:46;;;;;;;;;;;;;;;6.94;61.31;101899.22;5038060;28;7310;-70
2022/01/15 05:28:12;;;;;;;;;;;;;;;6.95;61.02;101885.69;5009400;28;6784;-70
2022/01/15 05:30:38;;;;;;;;;;;;;;;6.97;61.56;101888.38;5020109;28;8400;-70
2022/01/15 05:33:03;;;;;;;;;;;;;;;6.95;60.99;101891.69;5049580;28;6924;-69
2022/01/15 05:35:29;;;;;;;;;;;;;;;6.95;61.50;101885.69;5015662;28;6882;-69
2022/01/15 05:37:57;;;;;;;;;;;;;;;6.93;60.55;101880.50;5014154;28;7163;-69
2022/01/15 05:40:25;;;;;;;;;;;;;;;6.91;61.53;101865.81;5027752;28;6807;-70
2022/01/15 05:42:52;;;;;;;;;;;;;;;6.91;61.22;101868.38;5036049;28;6811;-70
2022/01/15 05:45:19;;;;;;;;;;;;;;;6.91;61.19;101865.81;5030857;28;7039;-70
2022/01/15 05:47:45;;;;;;;;;;;;;;;6.92;61.38;101863.41;5012964;28;7173;-70
2022/01/15 05:50:11;;;;;;;;;;;;;;;6.93;61.04;101864.28;5026915;28;6883;-70
2022/01/15 05:52:37;;;;;;;;;;;;;;;6.92;61.05;101862.50;5000100;28;6812;-70
2022/01/15 05:55:04;;;;;;;;;;;;;;;6.90;61.37;101866.56;5049857;28;6783;-70
2022/01/15 05:57:29;;;;;;;;;;;;;;;6.86;60.83;101862.00;5017206;28;7293;-70
2022/01/15 05:59:55;;;;;;;;;;;;;;;6.84;60.94;101866.03;5003551;28;6796;-70
2022/01/15 06:02:21;;;;;;;;;;;;;;;6.80;60.89;101850.50;5017477;28;8617;-69
2022/01/15 06:04:48;;;;;;;;;;;;;;;6.79;61.34;101848.72;5047035;28;7620;-69
2022/01/15 06:07:14;;;;;;;;;;;;;;;6.78;61.50;101846.91;5016247;28;6808;-70
2022/01/15 06:09:40;;;;;;;;;;;;;;;6.75;61.15;101844.09;5016989;28;6883;-69
2022/01/15 06:12:07;;;;;;;;;;;;;;;6.74;61.34;101839.75;5037146;28;6871;-70
2022/01/15 06:14:32;;;;;;;;;;;;;;;6.71;61.10;101836.03;5037420;28;6799;-70
2022/01/15 06:16:59;;;;;;;;;;;;;;;6.71;61.13;101846.22;5037589;28;6791;-70
2022/01/15 06:19:26;;;;;;;;;;;;;;;6.71;61.68;101838.59;5022896;28;7107;-70
2022/01/15 06:21:52;;;;;;;;;;;;;;;6.69;61.21;101833.38;5019404;28;6799;-70
2022/01/15 06:24:18;;;;;;;;;;;;;;;6.69;61.48;101840.13;5005324;28;7047;-70
2022/01/15 06:26:44;;;;;;;;;;;;;;;6.67;61.58;101843.44;5023774;28;7183;-70
2022/01/15 06:29:09;;;;;;;;;;;;;;;6.67;61.35;101837.47;5039307;28;6959;-70
2022/01/15 06:31:36;;;;;;;;;;;;;;;6.64;60.94;101839.72;5006746;28;7581;-69
2022/01/15 06:34:02;;;;;;;;;;;;;;;6.60;61.35;101838.56;5020397;28;7309;-69
2022/01/15 06:36:28;;;;;;;;;;;;;;;6.56;60.95;101831.41;5020839;28;6800;-69
2022/01/15 06:38:54;;;;;;;;;;;;;;;6.53;60.90;101836.25;5022450;28;6884;-69
2022/01/15 06:41:20;;;;;;;;;;;;;;;6.48;60.90;101833.31;5041330;28;6953;-70
2022/01/15 06:43:46;;;;;;;;;;;;;;;6.44;60.46;101836.31;5021025;28;7325;-70
2022/01/15 06:46:12;;;;;;;;;;;;;;;6.37;60.51;101839.09;5015728;28;7078;-70
2022/01/15 06:48:38;;;;;;;;;;;;;;;6.31;60.55;101828.38;5010429;28;6913;-70
2022/01/15 06:51:03;;;;;;;;;;;;;;;6.23;60.48;101836.22;5022523;28;6803;-70
2022/01/15 06:53:29;;;;;;;;;;;;;;;6.17;60.96;101834.78;5022105;28;6982;-69
2022/01/15 06:55:56;;;;;;;;;;;;;;;6.13;61.18;101831.06;5040308;28;6837;-70
2022/01/15 06:58:23;;;;;;;;;;;;;;;6.09;60.65;101836.66;5021564;28;6819;-70
2022/01/15 07:00:50;;;;;;;;;;;;;;;6.07;61.10;101836.53;5020936;28;6815;-70
2022/01/15 07:03:16;;;;;;;;;;;;;;;6.05;61.06;101839.69;5037050;28;6807;-70
2022/01/15 07:05:42;;;;;;;;;;;;;;;6.05;61.09;101839.69;4999854;28;6996;-70
2022/01/15 07:08:08;;;;;;;;;;;;;;;6.05;61.38;101844.78;5013889;28;6947;-70
2022/01/15 07:10:35;;;;;;;;;;;;;;;6.05;61.63;101845.69;5039972;28;6969;-70
2022/01/15 07:13:00;;;;;;;;;;;;;;;6.05;61.20;101837.13;5023388;28;7103;-70
2022/01/15 07:15:26;;;;;;;;;;;;;;;6.06;61.39;101838.91;5020389;28;7872;-70
2022/01/15 07:17:52;;;;;;;;;;;;;;;6.07;61.15;101844.16;5037492;28;6908;-70
2022/01/15 07:20:20;;;;;;;;;;;;;;;6.05;61.35;101843.13;5018659;28;7671;-70
2022/01/15 07:22:46;;;;;;;;;;;;;;;6.06;61.19;101852.56;5022283;28;6803;-70
2022/01/15 07:25:12;;;;;;;;;;;;;;;6.06;61.62;101849.09;5023081;28;6796;-70
2022/01/15 07:27:39;;;;;;;;;;;;;;;6.08;61.19;101852.66;5023846;28;7042;-70
2022/01/15 07:30:09;;;;;;;;;;;;;;;6.08;61.21;101852.66;5012128;28;6795;-70
2022/01/15 07:32:35;;;;;;;;;;;;;;;6.06;61.21;101850.00;5022461;28;6884;-70
2022/01/15 07:35:01;;;;;;;;;;;;;;;6.03;60.73;101838.66;5022197;28;6887;-70
2022/01/15 07:37:27;;;;;;;;;;;;;;;6.02;61.39;101839.41;5010248;28;6931;-72
2022/01/15 07:39:53;;;;;;;;;;;;;;;6.00;61.33;101840.91;5036697;28;6784;-72
2022/01/15 07:42:19;;;;;;;;;;;;;;;5.98;61.24;101841.63;5022882;28;6807;-72
2022/01/15 07:44:45;;;;;;;;;;;;;;;5.99;61.50;101829.81;5021204;28;6815;-72
2022/01/15 07:47:12;;;;;;;;;;;;;;;5.97;61.02;101837.28;5039698;28;7144;-70
2022/01/15 07:49:38;;;;;;;;;;;;;;;5.97;61.25;101838.97;5016578;28;7236;-70
2022/01/15 07:52:05;;;;;;;;;;;;;;;5.96;61.21;101844.81;5022063;28;6808;-70
2022/01/15 07:54:30;;;;;;;;;;;;;;;5.97;61.30;101846.59;5012190;28;6994;-70
2022/01/15 07:56:58;;;;;;;;;;;;;;;5.98;61.43;101843.28;5039066;28;7417;-70
2022/01/15 07:59:28;;;;;;;;;;;;;;;5.96;60.86;101832.97;4995249;28;7040;-70
2022/01/15 08:01:54;;;;;;;;;;;;;;;5.97;61.38;101837.28;5021000;28;6811;-70
2022/01/15 08:04:20;;;;;;;;;;;;;;;5.98;61.56;101833.13;5020664;28;6954;-70
2022/01/15 08:06:45;;;;;;;;;;;;;;;6.02;61.55;101834.31;4989879;28;6910;-70
2022/01/15 08:09:11;;;;;;;;;;;;;;;6.02;61.44;101824.13;5003447;28;6788;-70
2022/01/15 08:11:37;;;;;;;;;;;;;;;6.04;61.33;101822.63;5037241;28;7924;-70
2022/01/15 08:14:03;;;;;;;;;;;;;;;6.04;61.17;101820.06;5036189;28;6978;-69
2022/01/15 08:16:29;;;;;;;;;;;;;;;6.06;61.28;101826.19;5039048;28;6815;-69
2022/01/15 08:18:54;;;;;;;;;;;;;;;6.06;61.08;101818.56;5030367;28;7840;-70
2022/01/15 08:21:20;;;;;;;;;;;;;;;6.07;61.12;101823.78;5016292;28;6796;-70
2022/01/15 08:23:46;;;;;;;;;;;;;;;6.05;61.42;101822.78;5037663;28;6870;-70
2022/01/15 08:26:12;;;;;;;;;;;;;;;6.06;61.50;101826.19;4997172;28;7863;-70
2022/01/15 08:28:37;;;;;;;;;;;;;;;6.06;61.68;101827.09;5037189;28;6822;-72
2022/01/15 08:31:05;;;;;;;;;;;;;;;6.09;61.25;101821.41;5017457;28;6800;-70
2022/01/15 08:33:31;;;;;;;;;;;;;;;6.09;61.23;101826.47;5010806;28;6795;-70
2022/01/15 08:35:57;;;;;;;;;;;;;;;6.08;61.54;101830.66;4995613;28;7255;-70
2022/01/15 08:38:23;;;;;;;;;;;;;;;6.10;61.42;101829.16;5017532;28;6800;-70
2022/01/15 08:40:49;;;;;;;;;;;;;;;6.09;61.17;101821.41;5019664;28;7306;-70
2022/01/15 08:43:16;;;;;;;;;;;;;;;6.11;61.42;101827.50;5003525;28;6875;-70
2022/01/15 08:45:43;;;;;;;;;;;;;;;6.14;61.52;101820.13;4992243;28;9583;-70
2022/01/15 08:48:09;;;;;;;;;;;;;;;6.19;62.10;101823.09;5015826;28;7510;-70
2022/01/15 08:50:36;;;;;;;;;;;;;;;6.22;61.32;101828.44;5011868;28;7115;-70
2022/01/15 08:53:06;;;;;;;;;;;;;;;6.22;61.10;101828.44;5020332;28;7105;-70
2022/01/15 08:55:35;;;;;;;;;;;;;;;6.22;61.40;101825.91;5003990;28;6819;-70
2022/01/15 08:58:03;;;;;;;;;;;;;;;6.21;61.30;101822.47;4996910;28;6800;-70
2022/01/15 09:00:29;;;;;;;;;;;;;;;6.25;61.48;101809.25;5018795;28;6874;-70
2022/01/15 09:02:57;;;;;;;;;;;;;;;6.29;60.95;101812.06;5044914;28;10121;-70
2022/01/15 09:05:24;;;;;;;;;;;;;;;6.33;61.59;101807.38;5036348;28;7646;-70
2022/01/15 09:07:50;;;;;;;;;;;;;;;6.40;61.40;101806.25;5011421;28;7337;-70
2022/01/15 09:10:17;;;;;;;;;;;;;;;6.43;61.27;101806.53;5018199;28;6804;-70
2022/01/15 09:12:44;;;;;;;;;;;;;;;6.45;61.08;101806.66;5013845;28;7256;-70
2022/01/15 09:15:10;;;;;;;;;;;;;;;6.44;60.93;101805.75;5016876;28;6831;-70
2022/01/15 09:17:36;;;;;;;;;;;;;;;6.42;60.92;101799.66;5018711;28;6807;-70
2022/01/15 09:20:03;;;;;;;;;;;;;;;6.42;61.18;101804.75;5032847;28;6803;-70
2022/01/15 09:22:29;;;;;;;;;;;;;;;6.44;60.74;101810.84;5002901;28;7251;-70
2022/01/15 09:24:55;;;;;;;;;;;;;;;6.43;61.13;101803.09;5015685;28;6859;-72
2022/01/15 09:30:13;;;;;;;;;;;;;;;6.49;60.85;101804.53;5038117;28;6823;-70
2022/01/15 09:32:52;;;;;;;;;;;;;;;6.53;61.19;101801.47;5017116;28;7444;-70
2022/01/15 09:35:22;;;;;;;;;;;;;;;6.56;61.36;101798.31;5036896;28;7135;-70
2022/01/15 09:37:51;;;;;;;;;;;;;;;6.61;61.07;101793.59;5039058;28;6825;-70
2022/01/15 09:40:20;;;;;;;;;;;;;;;6.62;61.10;101793.75;5023084;28;7174;-70
2022/01/15 09:42:47;;;;;;;;;;;;;;;6.64;60.46;101793.84;5003330;28;6792;-70
2022/01/15 09:45:15;;;;;;;;;;;;;;;6.65;60.80;101790.53;5024612;28;6816;-70
2022/01/15 09:47:41;;;;;;;;;;;;;;;6.67;60.33;101796.69;5025190;28;6811;-70
2022/01/15 09:50:15;;;;;;;;;;;;;;;6.66;60.65;101789.78;5042498;28;7238;-69
2022/01/15 09:52:40;;;;;;;;;;;;;;;6.68;60.60;101795.94;5053237;28;7134;-69
2022/01/15 09:55:12;;;;;;;;;;;;;;;6.69;60.73;101791.72;5041011;28;6799;-69
2022/01/15 09:57:40;;;;;;;;;;;;;;;6.70;60.40;101783.28;5020907;28;7013;-70
2022/01/15 10:00:14;;;;;;;;;;;;;;;6.71;60.69;101786.00;5032440;28;7230;-70
2022/01/15 10:02:46;;;;;;;;;;;;;;;6.74;60.06;101791.34;5041120;28;6993;-70
2022/01/15 10:05:15;;;;;;;;;;;;;;;6.74;60.66;101781.16;5021069;28;7146;-70
2022/01/15 10:08:10;;;;;;;;;;;;;;;6.78;60.42;101785.75;5040813;28;6895;-70
2022/01/15 10:10:39;;;;;;;;;;;;;;;6.80;60.60;101781.69;5007775;28;6819;-70
2022/01/15 10:13:24;;;;;;;;;;;;;;;6.84;60.65;101781.94;5015821;28;6939;-70
2022/01/15 10:15:55;;;;;;;;;;;;;;;6.90;60.42;101782.47;5023059;28;7023;-70
2022/01/15 10:18:30;;;;;;;;;;;;;;;6.93;60.32;101782.72;5022824;28;7621;-70
2022/01/15 10:21:19;;;;;;;;;;;;;;;6.94;60.63;101781.94;5023107;28;6796;-70
2022/01/15 10:23:58;;;;;;;;;;;;;;;6.95;60.02;101781.19;5023640;28;7125;-70
2022/01/15 10:26:35;;;;;;;;;;;;;;;6.97;60.74;101786.41;5006337;28;7273;-70
2022/01/15 10:29:07;;;;;;;;;;;;;;;7.00;60.53;101779.03;5023030;28;7084;-70
2022/01/15 10:31:40;;;;;;;;;;;;;;;7.03;60.91;101775.06;5041013;28;6823;-70
2022/01/15 10:34:32;;;;;;;;;;;;;;;7.12;60.14;101782.63;5016620;28;7194;-70
2022/01/15 10:37:06;;;;;;;;;;;;;;;7.19;60.46;101784.03;5022669;28;6974;-70
2022/01/15 10:39:32;;;;;;;;;;;;;;;7.22;60.73;101776.63;5022393;28;6876;-70
2022/01/15 10:41:58;;;;;;;;;;;;;;;7.28;59.82;101777.16;5023356;28;7301;-70
2022/01/15 10:44:34;;;;;;;;;;;;;;;7.31;59.69;101779.94;5039633;28;6835;-70
2022/01/15 10:47:05;;;;;;;;;;;;;;;7.33;59.82;101783.50;5021940;28;6819;-70
2022/01/15 10:49:32;;;;;;;;;;;;;;;7.40;60.00;101791.69;5005416;28;7283;-70
2022/01/15 10:52:13;;;;;;;;;;;;;;;7.47;60.77;101781.22;5023240;28;6815;-70
2022/01/15 10:55:10;;;;;;;;;;;;;;;7.56;60.78;101784.53;5040215;28;7001;-70
2022/01/15 10:57:46;;;;;;;;;;;;;;;7.60;59.38;101775.50;5018855;28;6891;-70
2022/01/15 11:00:35;;;;;;;;;;;;;;;7.62;59.92;101779.06;5012202;28;6835;-70
2022/01/15 11:03:12;;;;;;;;;;;;;;;7.60;59.25;101778.91;5031780;28;6820;-70
2022/01/15 11:05:42;;;;;;;;;;;;;;;7.57;58.86;101765.91;5003961;28;6823;-70
2022/01/15 11:08:16;;;;;;;;;;;;;;;7.56;60.02;101766.69;5021936;28;7173;-70
2022/01/15 11:10:49;;;;;;;;;;;;;;;7.57;59.53;101754.81;5021641;28;7123;-69
2022/01/15 11:13:17;;;;;;;;;;;;;;;7.60;58.63;101752.53;5010797;28;6827;-69
2022/01/15 11:15:48;;;;;;;;;;;;;;;7.59;58.96;101743.97;5021084;28;6816;-70
2022/01/15 11:18:22;;;;;;;;;;;;;;;7.57;58.69;101745.50;5021961;28;6953;-70
2022/01/15 11:20:52;;;;;;;;;;;;;;;7.58;58.61;101734.53;5020945;28;7220;-70
2022/01/15 11:23:23;;;;;;;;;;;;;;;7.59;59.95;101741.41;5037008;28;7023;-70
2022/01/15 11:25:51;;;;;;;;;;;;;;;7.62;59.68;101739.09;5018192;28;7108;-70
2022/01/15 11:28:27;;;;;;;;;;;;;;;7.64;58.75;101735.03;5019585;28;6811;-70
2022/01/15 11:31:10;;;;;;;;;;;;;;;7.69;58.87;101737.06;5021438;28;6876;-70
2022/01/15 11:33:41;;;;;;;;;;;;;;;7.72;58.60;101739.84;5021738;28;6823;-70
2022/01/15 11:36:26;;;;;;;;;;;;;;;7.73;59.36;101731.44;5001504;28;6803;-70
2022/01/15 11:38:52;;;;;;;;;;;;;;;7.74;59.54;101725.56;5013223;28;6835;-70
2022/01/15 11:41:41;;;;;;;;;;;;;;;7.75;59.65;101732.47;5053801;28;6803;-70
2022/01/15 11:44:18;;;;;;;;;;;;;;;7.75;58.71;101722.25;5036957;28;6816;-70
2022/01/15 11:46:54;;;;;;;;;;;;;;;7.78;59.82;101727.59;5030755;28;6831;-70
2022/01/15 11:49:33;;;;;;;;;;;;;;;7.86;58.76;101724.00;5022730;28;7468;-70
2022/01/15 11:52:12;;;;;;;;;;;;;;;7.91;58.84;101716.72;4997848;28;8042;-70
2022/01/15 11:55:03;;;;;;;;;;;;;;;7.96;59.27;101712.84;5036674;28;7031;-70
2022/01/15 11:57:34;;;;;;;;;;;;;;;8.03;59.20;101714.25;5039705;28;6816;-70
2022/01/15 12:00:16;;;;;;;;;;;;;;;8.08;58.48;101710.38;5004925;28;6920;-70
2022/01/15 12:02:58;;;;;;;;;;;;;;;8.11;58.95;101699.53;5020767;28;7093;-70
2022/01/15 12:05:23;;;;;;;;;;;;;;;8.14;58.91;101697.19;5029181;28;7326;-70
2022/01/15 12:08:01;;;;;;;;;;;;;;;8.16;58.62;101698.22;5037898;28;6791;-70
2022/01/15 12:10:54;;;;;;;;;;;;;;;8.17;57.96;101684.69;5034506;28;6919;-70
2022/01/15 12:13:29;;;;;;;;;;;;;;;8.16;58.67;101690.53;4998276;28;7141;-70
2022/01/15 12:16:19;;;;;;;;;;;;;;;8.14;57.74;101684.44;5006893;28;7254;-70
2022/01/15 12:18:51;;;;;;;;;;;;;;;8.13;59.16;101685.22;5024005;28;6811;-70
2022/01/15 12:21:45;;;;;;;;;;;;;;;8.11;58.87;101677.44;5021005;28;7216;-70
2022/01/15 12:24:44;;;;;;;;;;;;;;;8.08;57.98;101681.41;5038122;28;6967;-70
2022/01/15 12:27:15;;;;;;;;;;;;;;;8.06;58.70;101676.19;5019745;28;6903;-70
2022/01/15 12:29:42;;;;;;;;;;;;;;;8.09;58.21;101668.75;5015115;28;7915;-70
2022/01/15 12:32:09;;;;;;;;;;;;;;;8.12;58.97;101666.47;5019265;28;6895;-70
2022/01/15 12:34:35;;;;;;;;;;;;;;;8.15;57.83;101664.13;4999529;28;7200;-70
2022/01/15 12:37:02;;;;;;;;;;;;;;;8.17;57.75;101660.03;5022560;28;6788;-70
2022/01/15 12:39:38;;;;;;;;;;;;;;;8.22;58.43;101664.63;5019393;28;7145;-70
2022/01/15 12:42:07;;;;;;;;;;;;;;;8.25;58.54;101657.19;5019501;28;7885;-70
2022/01/15 12:44:45;;;;;;;;;;;;;;;8.29;58.02;101655.00;5003342;28;6979;-70
2022/01/15 12:47:12;;;;;;;;;;;;;;;8.31;59.19;101650.88;5037046;28;6816;-70
2022/01/15 12:49:41;;;;;;;;;;;;;;;8.32;58.41;101651.78;5018536;28;9356;-70
2022/01/15 12:52:21;;;;;;;;;;;;;;;8.32;57.85;101655.22;5019673;28;6949;-70
2022/01/15 12:54:49;;;;;;;;;;;;;;;8.30;58.18;101637.97;5017434;28;7114;-70
2022/01/15 12:57:51;;;;;;;;;;;;;;;8.28;58.29;101632.78;5011835;28;6819;-70
2022/01/15 13:00:28;;;;;;;;;;;;;;;8.27;57.90;101628.44;5020363;28;6899;-70
2022/01/15 13:02:57;;;;;;;;;;;;;;;8.29;57.73;101621.78;4997179;28;7306;-70
2022/01/15 13:05:30;;;;;;;;;;;;;;;8.32;58.55;101616.03;5017830;28;6811;-70
2022/01/15 13:08:05;;;;;;;;;;;;;;;8.32;57.87;101616.91;5028882;28;7233;-70
2022/01/15 13:10:46;;;;;;;;;;;;;;;8.32;58.35;101608.34;4992941;28;7244;-70
2022/01/15 13:13:32;;;;;;;;;;;;;;;8.30;57.80;101609.88;5023166;28;7678;-70
2022/01/15 13:16:30;;;;;;;;;;;;;;;8.32;58.69;101598.13;5001912;28;7093;-70
2022/01/15 13:19:02;;;;;;;;;;;;;;;8.33;57.37;101608.47;5024605;28;7971;-70
2022/01/15 13:21:32;;;;;;;;;;;;;;;8.33;58.00;101611.00;5023484;28;6824;-70
2022/01/15 13:24:11;;;;;;;;;;;;;;;8.31;57.69;101606.59;5037083;28;7935;-70
2022/01/15 13:26:57;;;;;;;;;;;;;;;8.30;57.90;101609.88;5020840;28;6994;-70
2022/01/15 13:29:38;;;;;;;;;;;;;;;8.31;57.86;101606.59;5020798;28;8175;-70
2022/01/15 13:32:06;;;;;;;;;;;;;;;8.32;57.73;101603.25;5013326;28;6803;-70
2022/01/15 13:34:34;;;;;;;;;;;;;;;8.37;58.81;101607.03;5037158;28;7076;-70
2022/01/15 13:37:13;;;;;;;;;;;;;;;8.43;58.48;101602.41;5038554;28;6811;-70